sensor_id;sensor_type;location;lat;lon;timestamp;temperature;humidity
21522;DHT22;10922;45.572;10.002;2023-01-08T00:01:42;8.10;1.00
21522;DHT22;10922;45.572;10.002;2023-01-08T00:04:08;7.90;1.00
21522;DHT22;10922;45.572;10.002;2023-01-08T00:06:34;7.90;1.00
21522;DHT22;10922;45.572;10.002;2023-01-08T00:09:00;7.90;1.00
21522;DHT22;10922;45.572;10.002;2023-01-08T00:11:26;7.80;1.00
21522;DHT22;10922;45.572;10.002;2023-01-08T00:13:52;7.70;1.00
21522;DHT22;10922;45.572;10.002;2023-01-08T00:16:19;7.70;1.00
21522;DHT22;10922;45.572;10.002;2023-01-08T00:18:45;7.70;1.00
21522;DHT22;10922;45.572;10.002;2023-01-08T00:21:12;7.90;1.00
21522;DHT22;10922;45.572;10.002;2023-01-08T00:23:38;7.90;1.00
21522;DHT22;10922;45.572;10.002;2023-01-08T00:26:06;7.90;1.00
21522;DHT22;10922;45.572;10.002;2023-01-08T00:28:33;8.10;1.00
21522;DHT22;10922;45.572;10.002;2023-01-08T00:30:59;8.10;1.00
21522;DHT22;10922;45.572;10.002;2023-01-08T00:33:25;8.20;1.00
21522;DHT22;10922;45.572;10.002;2023-01-08T00:35:51;8.10;1.00
21522;DHT22;10922;45.572;10.002;2023-01-08T00:38:17;8.00;1.00
21522;DHT22;10922;45.572;10.002;2023-01-08T00:40:42;8.00;1.00
21522;DHT22;10922;45.572;10.002;2023-01-08T00:43:08;8.10;1.00
21522;DHT22;10922;45.572;10.002;2023-01-08T00:45:34;8.10;1.00
21522;DHT22;10922;45.572;10.002;2023-01-08T00:48:00;8.10;1.00
21522;DHT22;10922;45.572;10.002;2023-01-08T00:50:26;8.00;1.00
21522;DHT22;10922;45.572;10.002;2023-01-08T00:52:51;7.90;1.00
21522;DHT22;10922;45.572;10.002;2023-01-08T00:55:17;7.80;1.00
21522;DHT22;10922;45.572;10.002;2023-01-08T00:57:43;7.70;1.00
21522;DHT22;10922;45.572;10.002;2023-01-08T01:00:11;7.80;1.00
21522;DHT22;10922;45.572;10.002;2023-01-08T01:02:39;7.90;1.00
21522;DHT22;10922;45.572;10.002;2023-01-08T01:05:05;7.90;1.00
21522;DHT22;10922;45.572;10.002;2023-01-08T01:07:32;7.90;1.00
21522;DHT22;10922;45.572;10.002;2023-01-08T01:09:58;8.00;1.00
21522;DHT22;10922;45.572;10.002;2023-01-08T01:12:23;8.00;1.00
21522;DHT22;10922;45.572;10.002;2023-01-08T01:14:49;8.10;1.00
21522;DHT22;10922;45.572;10.002;2023-01-08T01:17:15;8.00;1.00
21522;DHT22;10922;45.572;10.002;2023-01-08T01:19:41;8.10;1.00
21522;DHT22;10922;45.572;10.002;2023-01-08T01:22:07;8.10;1.00
21522;DHT22;10922;45.572;10.002;2023-01-08T01:24:33;8.20;1.00
21522;DHT22;10922;45.572;10.002;2023-01-08T01:26:59;8.20;1.00
21522;DHT22;10922;45.572;10.002;2023-01-08T01:29:24;8.30;1.00
21522;DHT22;10922;45.572;10.002;2023-01-08T01:31:50;8.30;1.00
21522;DHT22;10922;45.572;10.002;2023-01-08T01:34:16;8.30;1.00
21522;DHT22;10922;45.572;10.002;2023-01-08T01:36:41;8.30;1.00
21522;DHT22;10922;45.572;10.002;2023-01-08T01:39:07;8.20;1.00
21522;DHT22;10922;45.572;10.002;2023-01-08T01:41:42;8.10;1.00
21522;DHT22;10922;45.572;10.002;2023-01-08T01:44:43;8.10;1.00
21522;DHT22;10922;45.572;10.002;2023-01-08T01:47:31;8.10;1.00
21522;DHT22;10922;45.572;10.002;2023-01-08T01:50:08;8.10;1.00
21522;DHT22;10922;45.572;10.002;2023-01-08T01:53:11;8.10;1.00
21522;DHT22;10922;45.572;10.002;2023-01-08T01:55:40;8.20;1.00
21522;DHT22;10922;45.572;10.002;2023-01-08T01:58:35;8.30;1.00
21522;DHT22;10922;45.572;10.002;2023-01-08T02:01:03;8.20;1.00
21522;DHT22;10922;45.572;10.002;2023-01-08T02:03:33;8.30;1.00
21522;DHT22;10922;45.572;10.002;2023-01-08T02:11:28;8.30;1.00
21522;DHT22;10922;45.572;10.002;2023-01-08T02:14:19;8.40;1.00
21522;DHT22;10922;45.572;10.002;2023-01-08T02:17:02;8.30;1.00
21522;DHT22;10922;45.572;10.002;2023-01-08T02:19:52;8.20;1.00
21522;DHT22;10922;45.572;10.002;2023-01-08T02:22:36;8.20;1.00
21522;DHT22;10922;45.572;10.002;2023-01-08T02:27:44;8.30;1.00
21522;DHT22;10922;45.572;10.002;2023-01-08T02:30:12;8.20;1.00
21522;DHT22;10922;45.572;10.002;2023-01-08T02:32:39;8.10;1.00
21522;DHT22;10922;45.572;10.002;2023-01-08T02:35:07;8.20;1.00
21522;DHT22;10922;45.572;10.002;2023-01-08T02:37:34;8.10;1.00
21522;DHT22;10922;45.572;10.002;2023-01-08T02:45:58;8.00;1.00
21522;DHT22;10922;45.572;10.002;2023-01-08T02:50:40;8.10;1.00
21522;DHT22;10922;45.572;10.002;2023-01-08T02:53:19;8.20;1.00
21522;DHT22;10922;45.572;10.002;2023-01-08T02:55:52;8.20;1.00
21522;DHT22;10922;45.572;10.002;2023-01-08T02:58:20;8.10;1.00
21522;DHT22;10922;45.572;10.002;2023-01-08T03:00:47;8.20;1.00
21522;DHT22;10922;45.572;10.002;2023-01-08T03:03:27;8.10;1.00
21522;DHT22;10922;45.572;10.002;2023-01-08T03:06:02;8.10;1.00
21522;DHT22;10922;45.572;10.002;2023-01-08T03:08:28;8.00;1.00
21522;DHT22;10922;45.572;10.002;2023-01-08T03:11:09;7.90;1.00
21522;DHT22;10922;45.572;10.002;2023-01-08T03:13:46;8.00;1.00
21522;DHT22;10922;45.572;10.002;2023-01-08T03:17:06;8.10;1.00
21522;DHT22;10922;45.572;10.002;2023-01-08T03:19:35;8.00;1.00
21522;DHT22;10922;45.572;10.002;2023-01-08T03:22:06;8.10;1.00
21522;DHT22;10922;45.572;10.002;2023-01-08T03:24:34;8.10;1.00
21522;DHT22;10922;45.572;10.002;2023-01-08T03:27:04;8.20;1.00
21522;DHT22;10922;45.572;10.002;2023-01-08T03:29:32;8.20;1.00
21522;DHT22;10922;45.572;10.002;2023-01-08T03:32:07;8.30;1.00
21522;DHT22;10922;45.572;10.002;2023-01-08T03:34:36;8.20;1.00
21522;DHT22;10922;45.572;10.002;2023-01-08T03:37:05;8.10;1.00
21522;DHT22;10922;45.572;10.002;2023-01-08T03:42:17;8.10;1.00
21522;DHT22;10922;45.572;10.002;2023-01-08T03:44:43;8.10;1.00
21522;DHT22;10922;45.572;10.002;2023-01-08T03:47:10;8.20;1.00
21522;DHT22;10922;45.572;10.002;2023-01-08T03:49:37;8.30;1.00
21522;DHT22;10922;45.572;10.002;2023-01-08T03:52:03;8.30;1.00
21522;DHT22;10922;45.572;10.002;2023-01-08T03:54:34;8.20;1.00
21522;DHT22;10922;45.572;10.002;2023-01-08T03:57:00;8.20;1.00
21522;DHT22;10922;45.572;10.002;2023-01-08T03:59:26;8.20;1.00
21522;DHT22;10922;45.572;10.002;2023-01-08T04:01:51;8.30;1.00
21522;DHT22;10922;45.572;10.002;2023-01-08T04:04:17;8.20;1.00
21522;DHT22;10922;45.572;10.002;2023-01-08T04:06:43;8.20;1.00
21522;DHT22;10922;45.572;10.002;2023-01-08T04:09:09;8.20;1.00
21522;DHT22;10922;45.572;10.002;2023-01-08T04:11:34;8.30;1.00
21522;DHT22;10922;45.572;10.002;2023-01-08T04:14:00;8.40;1.00
21522;DHT22;10922;45.572;10.002;2023-01-08T04:16:26;8.40;1.00
21522;DHT22;10922;45.572;10.002;2023-01-08T04:18:52;8.30;1.00
21522;DHT22;10922;45.572;10.002;2023-01-08T04:21:17;8.20;1.00
21522;DHT22;10922;45.572;10.002;2023-01-08T04:23:43;8.30;1.00
21522;DHT22;10922;45.572;10.002;2023-01-08T04:26:09;8.30;1.00
21522;DHT22;10922;45.572;10.002;2023-01-08T04:28:35;8.30;1.00
21522;DHT22;10922;45.572;10.002;2023-01-08T04:31:06;8.30;1.00
21522;DHT22;10922;45.572;10.002;2023-01-08T04:33:31;8.30;1.00
21522;DHT22;10922;45.572;10.002;2023-01-08T04:35:57;8.40;1.00
21522;DHT22;10922;45.572;10.002;2023-01-08T04:38:23;8.20;1.00
21522;DHT22;10922;45.572;10.002;2023-01-08T04:40:48;8.10;1.00
21522;DHT22;10922;45.572;10.002;2023-01-08T04:43:14;8.20;1.00
21522;DHT22;10922;45.572;10.002;2023-01-08T04:45:39;8.20;1.00
21522;DHT22;10922;45.572;10.002;2023-01-08T04:48:05;8.30;1.00
21522;DHT22;10922;45.572;10.002;2023-01-08T04:50:31;8.20;1.00
21522;DHT22;10922;45.572;10.002;2023-01-08T04:52:58;8.30;1.00
21522;DHT22;10922;45.572;10.002;2023-01-08T04:55:24;8.20;1.00
21522;DHT22;10922;45.572;10.002;2023-01-08T04:57:50;8.20;1.00
21522;DHT22;10922;45.572;10.002;2023-01-08T05:00:16;8.20;1.00
21522;DHT22;10922;45.572;10.002;2023-01-08T05:02:41;8.20;1.00
21522;DHT22;10922;45.572;10.002;2023-01-08T05:05:07;8.10;1.00
21522;DHT22;10922;45.572;10.002;2023-01-08T05:07:33;8.20;1.00
21522;DHT22;10922;45.572;10.002;2023-01-08T05:09:58;8.20;1.00
21522;DHT22;10922;45.572;10.002;2023-01-08T05:12:24;8.20;1.00
21522;DHT22;10922;45.572;10.002;2023-01-08T05:14:50;8.30;1.00
21522;DHT22;10922;45.572;10.002;2023-01-08T05:17:15;8.20;1.00
21522;DHT22;10922;45.572;10.002;2023-01-08T05:19:41;8.30;1.00
21522;DHT22;10922;45.572;10.002;2023-01-08T05:22:06;8.20;1.00
21522;DHT22;10922;45.572;10.002;2023-01-08T05:24:32;8.20;1.00
21522;DHT22;10922;45.572;10.002;2023-01-08T05:26:58;8.10;1.00
21522;DHT22;10922;45.572;10.002;2023-01-08T05:29:23;8.00;1.00
21522;DHT22;10922;45.572;10.002;2023-01-08T05:31:49;8.10;1.00
21522;DHT22;10922;45.572;10.002;2023-01-08T05:34:14;8.00;1.00
21522;DHT22;10922;45.572;10.002;2023-01-08T05:36:40;8.10;1.00
21522;DHT22;10922;45.572;10.002;2023-01-08T05:39:06;8.20;1.00
21522;DHT22;10922;45.572;10.002;2023-01-08T05:41:31;8.10;1.00
21522;DHT22;10922;45.572;10.002;2023-01-08T05:43:57;8.10;1.00
21522;DHT22;10922;45.572;10.002;2023-01-08T05:46:23;8.20;1.00
21522;DHT22;10922;45.572;10.002;2023-01-08T05:48:48;8.30;1.00
21522;DHT22;10922;45.572;10.002;2023-01-08T05:51:14;8.30;1.00
21522;DHT22;10922;45.572;10.002;2023-01-08T05:53:39;8.30;1.00
21522;DHT22;10922;45.572;10.002;2023-01-08T05:56:07;8.40;1.00
21522;DHT22;10922;45.572;10.002;2023-01-08T05:58:33;8.30;1.00
21522;DHT22;10922;45.572;10.002;2023-01-08T06:01:04;8.30;1.00
21522;DHT22;10922;45.572;10.002;2023-01-08T06:03:30;8.40;1.00
21522;DHT22;10922;45.572;10.002;2023-01-08T06:06:00;8.30;1.00
21522;DHT22;10922;45.572;10.002;2023-01-08T06:08:27;8.40;1.00
21522;DHT22;10922;45.572;10.002;2023-01-08T06:10:53;8.50;1.00
21522;DHT22;10922;45.572;10.002;2023-01-08T06:13:19;8.50;1.00
21522;DHT22;10922;45.572;10.002;2023-01-08T06:15:45;8.50;1.00
21522;DHT22;10922;45.572;10.002;2023-01-08T06:18:10;8.60;1.00
21522;DHT22;10922;45.572;10.002;2023-01-08T06:20:36;8.50;1.00
21522;DHT22;10922;45.572;10.002;2023-01-08T06:23:02;8.40;1.00
21522;DHT22;10922;45.572;10.002;2023-01-08T06:25:27;8.40;1.00
21522;DHT22;10922;45.572;10.002;2023-01-08T06:27:54;8.50;1.00
21522;DHT22;10922;45.572;10.002;2023-01-08T06:30:20;8.50;1.00
21522;DHT22;10922;45.572;10.002;2023-01-08T06:32:45;8.30;1.00
21522;DHT22;10922;45.572;10.002;2023-01-08T06:35:11;8.20;1.00
21522;DHT22;10922;45.572;10.002;2023-01-08T06:37:36;8.10;1.00
21522;DHT22;10922;45.572;10.002;2023-01-08T06:40:02;8.10;1.00
21522;DHT22;10922;45.572;10.002;2023-01-08T06:42:28;8.20;1.00
21522;DHT22;10922;45.572;10.002;2023-01-08T06:44:54;8.10;1.00
21522;DHT22;10922;45.572;10.002;2023-01-08T06:47:19;7.90;1.00
21522;DHT22;10922;45.572;10.002;2023-01-08T06:49:45;7.90;1.00
21522;DHT22;10922;45.572;10.002;2023-01-08T06:52:10;8.00;1.00
21522;DHT22;10922;45.572;10.002;2023-01-08T06:54:36;8.10;1.00
21522;DHT22;10922;45.572;10.002;2023-01-08T06:57:02;8.20;1.00
21522;DHT22;10922;45.572;10.002;2023-01-08T06:59:27;8.20;1.00
21522;DHT22;10922;45.572;10.002;2023-01-08T07:01:53;8.20;1.00
21522;DHT22;10922;45.572;10.002;2023-01-08T07:04:19;8.30;1.00
21522;DHT22;10922;45.572;10.002;2023-01-08T07:06:45;8.30;1.00
21522;DHT22;10922;45.572;10.002;2023-01-08T07:09:12;8.20;1.00
21522;DHT22;10922;45.572;10.002;2023-01-08T07:11:39;8.20;1.00
21522;DHT22;10922;45.572;10.002;2023-01-08T07:14:05;8.20;1.00
21522;DHT22;10922;45.572;10.002;2023-01-08T07:16:31;8.30;1.00
21522;DHT22;10922;45.572;10.002;2023-01-08T07:18:57;8.30;1.00
21522;DHT22;10922;45.572;10.002;2023-01-08T07:21:22;8.40;1.00
21522;DHT22;10922;45.572;10.002;2023-01-08T07:23:49;8.40;1.00
21522;DHT22;10922;45.572;10.002;2023-01-08T07:26:15;8.30;1.00
21522;DHT22;10922;45.572;10.002;2023-01-08T07:28:41;8.20;1.00
21522;DHT22;10922;45.572;10.002;2023-01-08T07:31:06;8.30;1.00
21522;DHT22;10922;45.572;10.002;2023-01-08T07:33:33;8.30;1.00
21522;DHT22;10922;45.572;10.002;2023-01-08T07:35:59;8.30;1.00
21522;DHT22;10922;45.572;10.002;2023-01-08T07:38:25;8.40;1.00
21522;DHT22;10922;45.572;10.002;2023-01-08T07:40:50;8.30;1.00
21522;DHT22;10922;45.572;10.002;2023-01-08T07:43:16;8.30;1.00
21522;DHT22;10922;45.572;10.002;2023-01-08T07:45:42;8.50;1.00
21522;DHT22;10922;45.572;10.002;2023-01-08T07:48:08;8.50;1.00
21522;DHT22;10922;45.572;10.002;2023-01-08T07:50:43;8.40;1.00
21522;DHT22;10922;45.572;10.002;2023-01-08T07:53:10;8.40;1.00
21522;DHT22;10922;45.572;10.002;2023-01-08T07:55:36;8.60;1.00
21522;DHT22;10922;45.572;10.002;2023-01-08T07:58:12;8.50;1.00
21522;DHT22;10922;45.572;10.002;2023-01-08T08:00:38;8.50;1.00
21522;DHT22;10922;45.572;10.002;2023-01-08T08:03:06;8.50;1.00
21522;DHT22;10922;45.572;10.002;2023-01-08T08:05:33;8.50;1.00
21522;DHT22;10922;45.572;10.002;2023-01-08T08:07:58;8.50;1.00
21522;DHT22;10922;45.572;10.002;2023-01-08T08:10:24;8.50;1.00
21522;DHT22;10922;45.572;10.002;2023-01-08T08:12:50;8.60;1.00
21522;DHT22;10922;45.572;10.002;2023-01-08T08:15:15;8.60;1.00
21522;DHT22;10922;45.572;10.002;2023-01-08T08:17:45;8.60;1.00
21522;DHT22;10922;45.572;10.002;2023-01-08T08:20:11;8.60;1.00
21522;DHT22;10922;45.572;10.002;2023-01-08T08:22:37;8.70;1.00
21522;DHT22;10922;45.572;10.002;2023-01-08T08:25:03;8.80;1.00
21522;DHT22;10922;45.572;10.002;2023-01-08T08:27:28;8.70;1.00
21522;DHT22;10922;45.572;10.002;2023-01-08T08:29:54;8.80;1.00
21522;DHT22;10922;45.572;10.002;2023-01-08T08:32:20;8.80;1.00
21522;DHT22;10922;45.572;10.002;2023-01-08T08:34:45;8.70;1.00
21522;DHT22;10922;45.572;10.002;2023-01-08T08:37:11;8.70;1.00
21522;DHT22;10922;45.572;10.002;2023-01-08T08:39:36;8.80;1.00
21522;DHT22;10922;45.572;10.002;2023-01-08T08:42:03;8.80;1.00
21522;DHT22;10922;45.572;10.002;2023-01-08T08:44:29;8.70;1.00
21522;DHT22;10922;45.572;10.002;2023-01-08T08:46:54;8.60;1.00
21522;DHT22;10922;45.572;10.002;2023-01-08T08:49:20;8.60;1.00
21522;DHT22;10922;45.572;10.002;2023-01-08T08:51:45;8.60;1.00
21522;DHT22;10922;45.572;10.002;2023-01-08T08:54:11;8.70;1.00
21522;DHT22;10922;45.572;10.002;2023-01-08T08:56:37;8.70;1.00
21522;DHT22;10922;45.572;10.002;2023-01-08T08:59:02;8.70;1.00
21522;DHT22;10922;45.572;10.002;2023-01-08T09:01:28;8.70;1.00
21522;DHT22;10922;45.572;10.002;2023-01-08T09:03:54;8.70;1.00
21522;DHT22;10922;45.572;10.002;2023-01-08T09:06:20;8.80;1.00
21522;DHT22;10922;45.572;10.002;2023-01-08T09:08:45;8.80;1.00
21522;DHT22;10922;45.572;10.002;2023-01-08T09:11:11;8.70;1.00
21522;DHT22;10922;45.572;10.002;2023-01-08T09:13:37;8.70;1.00
21522;DHT22;10922;45.572;10.002;2023-01-08T09:16:03;8.60;1.00
21522;DHT22;10922;45.572;10.002;2023-01-08T09:18:28;8.60;1.00
21522;DHT22;10922;45.572;10.002;2023-01-08T09:20:54;8.60;1.00
21522;DHT22;10922;45.572;10.002;2023-01-08T09:23:20;8.60;1.00
21522;DHT22;10922;45.572;10.002;2023-01-08T09:25:45;8.70;1.00
21522;DHT22;10922;45.572;10.002;2023-01-08T09:28:11;8.80;1.00
21522;DHT22;10922;45.572;10.002;2023-01-08T09:30:38;8.80;1.00
21522;DHT22;10922;45.572;10.002;2023-01-08T09:33:04;8.90;1.00
21522;DHT22;10922;45.572;10.002;2023-01-08T09:35:31;9.00;1.00
21522;DHT22;10922;45.572;10.002;2023-01-08T09:37:57;8.90;1.00
21522;DHT22;10922;45.572;10.002;2023-01-08T09:40:50;8.80;1.00
21522;DHT22;10922;45.572;10.002;2023-01-08T09:43:19;8.80;1.00
21522;DHT22;10922;45.572;10.002;2023-01-08T09:45:53;8.80;1.00
21522;DHT22;10922;45.572;10.002;2023-01-08T09:48:22;8.60;1.00
21522;DHT22;10922;45.572;10.002;2023-01-08T09:50:50;8.50;1.00
21522;DHT22;10922;45.572;10.002;2023-01-08T09:53:16;8.50;1.00
21522;DHT22;10922;45.572;10.002;2023-01-08T09:55:44;8.60;1.00
21522;DHT22;10922;45.572;10.002;2023-01-08T09:58:44;8.40;1.00
21522;DHT22;10922;45.572;10.002;2023-01-08T10:01:13;8.40;1.00
21522;DHT22;10922;45.572;10.002;2023-01-08T10:06:14;8.70;1.00
21522;DHT22;10922;45.572;10.002;2023-01-08T10:08:40;8.60;1.00
21522;DHT22;10922;45.572;10.002;2023-01-08T10:11:07;8.70;1.00
21522;DHT22;10922;45.572;10.002;2023-01-08T10:13:36;8.80;1.00
21522;DHT22;10922;45.572;10.002;2023-01-08T10:16:07;8.90;1.00
21522;DHT22;10922;45.572;10.002;2023-01-08T10:18:34;8.90;1.00
21522;DHT22;10922;45.572;10.002;2023-01-08T10:21:00;8.70;1.00
21522;DHT22;10922;45.572;10.002;2023-01-08T10:23:26;8.70;1.00
21522;DHT22;10922;45.572;10.002;2023-01-08T10:25:55;8.80;1.00
21522;DHT22;10922;45.572;10.002;2023-01-08T10:28:26;8.80;1.00
21522;DHT22;10922;45.572;10.002;2023-01-08T10:30:53;8.70;1.00
21522;DHT22;10922;45.572;10.002;2023-01-08T10:33:29;8.50;1.00
21522;DHT22;10922;45.572;10.002;2023-01-08T10:36:03;8.70;1.00
21522;DHT22;10922;45.572;10.002;2023-01-08T10:38:38;8.80;1.00
21522;DHT22;10922;45.572;10.002;2023-01-08T10:41:09;8.80;1.00
21522;DHT22;10922;45.572;10.002;2023-01-08T10:46:15;8.70;1.00
21522;DHT22;10922;45.572;10.002;2023-01-08T10:48:46;8.70;1.00
21522;DHT22;10922;45.572;10.002;2023-01-08T10:51:28;8.80;1.00
21522;DHT22;10922;45.572;10.002;2023-01-08T10:53:58;8.90;1.00
21522;DHT22;10922;45.572;10.002;2023-01-08T10:56:29;9.00;1.00
21522;DHT22;10922;45.572;10.002;2023-01-08T10:58:55;9.00;1.00
21522;DHT22;10922;45.572;10.002;2023-01-08T11:01:26;8.90;1.00
21522;DHT22;10922;45.572;10.002;2023-01-08T11:03:58;9.00;1.00
21522;DHT22;10922;45.572;10.002;2023-01-08T11:06:29;8.70;1.00
21522;DHT22;10922;45.572;10.002;2023-01-08T11:09:01;8.80;1.00
21522;DHT22;10922;45.572;10.002;2023-01-08T11:11:35;8.60;1.00
21522;DHT22;10922;45.572;10.002;2023-01-08T11:14:15;8.80;1.00
21522;DHT22;10922;45.572;10.002;2023-01-08T11:16:43;8.70;1.00
21522;DHT22;10922;45.572;10.002;2023-01-08T11:22:18;8.70;1.00
21522;DHT22;10922;45.572;10.002;2023-01-08T11:24:44;8.80;1.00
21522;DHT22;10922;45.572;10.002;2023-01-08T11:27:27;8.80;1.00
21522;DHT22;10922;45.572;10.002;2023-01-08T11:30:06;8.90;1.00
21522;DHT22;10922;45.572;10.002;2023-01-08T11:35:32;8.90;1.00
21522;DHT22;10922;45.572;10.002;2023-01-08T11:38:01;9.10;1.00
21522;DHT22;10922;45.572;10.002;2023-01-08T12:08:02;8.30;1.00
21522;DHT22;10922;45.572;10.002;2023-01-08T12:33:00;8.50;1.00
21522;DHT22;10922;45.572;10.002;2023-01-08T12:35:35;8.60;1.00
21522;DHT22;10922;45.572;10.002;2023-01-08T12:38:13;8.60;1.00
21522;DHT22;10922;45.572;10.002;2023-01-08T12:40:44;8.60;1.00
21522;DHT22;10922;45.572;10.002;2023-01-08T12:43:18;8.50;1.00
21522;DHT22;10922;45.572;10.002;2023-01-08T12:45:49;8.50;1.00
21522;DHT22;10922;45.572;10.002;2023-01-08T12:48:22;8.30;1.00
21522;DHT22;10922;45.572;10.002;2023-01-08T12:50:56;8.40;1.00
21522;DHT22;10922;45.572;10.002;2023-01-08T12:59:05;8.30;1.00
21522;DHT22;10922;45.572;10.002;2023-01-08T13:02:02;8.40;1.00
21522;DHT22;10922;45.572;10.002;2023-01-08T13:04:46;8.40;1.00
21522;DHT22;10922;45.572;10.002;2023-01-08T13:07:28;8.50;1.00
21522;DHT22;10922;45.572;10.002;2023-01-08T13:10:00;8.50;1.00
21522;DHT22;10922;45.572;10.002;2023-01-08T13:12:49;8.40;1.00
21522;DHT22;10922;45.572;10.002;2023-01-08T13:15:24;8.50;1.00
21522;DHT22;10922;45.572;10.002;2023-01-08T13:17:55;8.50;1.00
21522;DHT22;10922;45.572;10.002;2023-01-08T13:20:24;8.60;1.00
21522;DHT22;10922;45.572;10.002;2023-01-08T13:22:59;8.60;1.00
21522;DHT22;10922;45.572;10.002;2023-01-08T13:25:31;8.60;1.00
21522;DHT22;10922;45.572;10.002;2023-01-08T13:27:58;8.50;1.00
21522;DHT22;10922;45.572;10.002;2023-01-08T13:35:51;8.70;1.00
21522;DHT22;10922;45.572;10.002;2023-01-08T13:38:20;8.80;1.00
21522;DHT22;10922;45.572;10.002;2023-01-08T13:43:27;8.90;1.00
21522;DHT22;10922;45.572;10.002;2023-01-08T13:46:14;8.90;1.00
21522;DHT22;10922;45.572;10.002;2023-01-08T13:49:01;9.00;1.00
21522;DHT22;10922;45.572;10.002;2023-01-08T13:51:38;9.00;1.00
21522;DHT22;10922;45.572;10.002;2023-01-08T13:56:41;9.10;1.00
21522;DHT22;10922;45.572;10.002;2023-01-08T13:59:23;9.30;1.00
21522;DHT22;10922;45.572;10.002;2023-01-08T14:01:54;9.30;1.00
21522;DHT22;10922;45.572;10.002;2023-01-08T14:04:23;9.20;1.00
21522;DHT22;10922;45.572;10.002;2023-01-08T14:06:49;9.20;1.00
21522;DHT22;10922;45.572;10.002;2023-01-08T14:09:23;9.30;1.00
21522;DHT22;10922;45.572;10.002;2023-01-08T14:11:52;9.30;1.00
21522;DHT22;10922;45.572;10.002;2023-01-08T14:14:21;9.30;1.00
21522;DHT22;10922;45.572;10.002;2023-01-08T14:16:49;9.10;1.00
21522;DHT22;10922;45.572;10.002;2023-01-08T14:19:23;9.20;1.00
21522;DHT22;10922;45.572;10.002;2023-01-08T14:21:54;9.10;1.00
21522;DHT22;10922;45.572;10.002;2023-01-08T14:24:21;9.10;1.00
21522;DHT22;10922;45.572;10.002;2023-01-08T14:26:58;9.10;1.00
21522;DHT22;10922;45.572;10.002;2023-01-08T14:29:27;9.10;1.00
21522;DHT22;10922;45.572;10.002;2023-01-08T14:31:59;9.00;1.00
21522;DHT22;10922;45.572;10.002;2023-01-08T14:34:28;9.10;1.00
21522;DHT22;10922;45.572;10.002;2023-01-08T14:36:55;9.20;1.00
21522;DHT22;10922;45.572;10.002;2023-01-08T14:39:39;9.20;1.00
21522;DHT22;10922;45.572;10.002;2023-01-08T14:42:21;9.20;1.00
21522;DHT22;10922;45.572;10.002;2023-01-08T14:45:27;9.30;1.00
21522;DHT22;10922;45.572;10.002;2023-01-08T14:50:41;9.20;1.00
21522;DHT22;10922;45.572;10.002;2023-01-08T14:55:47;9.20;1.00
21522;DHT22;10922;45.572;10.002;2023-01-08T14:58:37;9.20;1.00
21522;DHT22;10922;45.572;10.002;2023-01-08T15:01:27;9.10;1.00
21522;DHT22;10922;45.572;10.002;2023-01-08T15:06:32;9.20;1.00
21522;DHT22;10922;45.572;10.002;2023-01-08T15:08:58;9.20;1.00
21522;DHT22;10922;45.572;10.002;2023-01-08T15:11:25;9.20;1.00
21522;DHT22;10922;45.572;10.002;2023-01-08T15:13:52;9.10;1.00
21522;DHT22;10922;45.572;10.002;2023-01-08T15:16:33;9.10;1.00
21522;DHT22;10922;45.572;10.002;2023-01-08T15:19:18;9.20;1.00
21522;DHT22;10922;45.572;10.002;2023-01-08T15:21:47;9.20;1.00
21522;DHT22;10922;45.572;10.002;2023-01-08T15:26:46;9.20;1.00
21522;DHT22;10922;45.572;10.002;2023-01-08T15:29:17;9.10;1.00
21522;DHT22;10922;45.572;10.002;2023-01-08T15:31:46;9.10;1.00
21522;DHT22;10922;45.572;10.002;2023-01-08T15:34:12;9.00;1.00
21522;DHT22;10922;45.572;10.002;2023-01-08T15:36:38;9.10;1.00
21522;DHT22;10922;45.572;10.002;2023-01-08T15:39:04;9.00;1.00
21522;DHT22;10922;45.572;10.002;2023-01-08T15:41:37;9.00;1.00
21522;DHT22;10922;45.572;10.002;2023-01-08T15:44:22;9.10;1.00
21522;DHT22;10922;45.572;10.002;2023-01-08T15:46:48;9.00;1.00
21522;DHT22;10922;45.572;10.002;2023-01-08T15:49:13;9.00;1.00
21522;DHT22;10922;45.572;10.002;2023-01-08T15:51:47;9.00;1.00
21522;DHT22;10922;45.572;10.002;2023-01-08T15:54:14;8.90;1.00
21522;DHT22;10922;45.572;10.002;2023-01-08T15:56:40;9.00;1.00
21522;DHT22;10922;45.572;10.002;2023-01-08T15:59:06;8.90;1.00
21522;DHT22;10922;45.572;10.002;2023-01-08T16:01:32;9.00;1.00
21522;DHT22;10922;45.572;10.002;2023-01-08T16:03:59;9.00;1.00
21522;DHT22;10922;45.572;10.002;2023-01-08T16:06:25;9.00;1.00
21522;DHT22;10922;45.572;10.002;2023-01-08T16:08:50;9.00;1.00
21522;DHT22;10922;45.572;10.002;2023-01-08T16:11:17;9.00;1.00
21522;DHT22;10922;45.572;10.002;2023-01-08T16:13:43;8.90;1.00
21522;DHT22;10922;45.572;10.002;2023-01-08T16:16:11;8.90;1.00
21522;DHT22;10922;45.572;10.002;2023-01-08T16:18:38;9.00;1.00
21522;DHT22;10922;45.572;10.002;2023-01-08T16:21:05;9.00;1.00
21522;DHT22;10922;45.572;10.002;2023-01-08T16:23:36;9.00;1.00
21522;DHT22;10922;45.572;10.002;2023-01-08T16:26:13;8.90;1.00
21522;DHT22;10922;45.572;10.002;2023-01-08T16:28:39;9.00;1.00
21522;DHT22;10922;45.572;10.002;2023-01-08T16:31:05;8.90;1.00
21522;DHT22;10922;45.572;10.002;2023-01-08T16:33:31;9.00;1.00
21522;DHT22;10922;45.572;10.002;2023-01-08T16:35:58;8.90;1.00
21522;DHT22;10922;45.572;10.002;2023-01-08T16:38:24;8.90;1.00
21522;DHT22;10922;45.572;10.002;2023-01-08T16:40:51;8.90;1.00
21522;DHT22;10922;45.572;10.002;2023-01-08T16:43:16;8.80;1.00
21522;DHT22;10922;45.572;10.002;2023-01-08T16:45:46;8.80;1.00
21522;DHT22;10922;45.572;10.002;2023-01-08T16:48:12;8.90;1.00
21522;DHT22;10922;45.572;10.002;2023-01-08T16:50:39;8.90;1.00
21522;DHT22;10922;45.572;10.002;2023-01-08T16:53:05;9.00;1.00
21522;DHT22;10922;45.572;10.002;2023-01-08T16:55:31;8.90;1.00
21522;DHT22;10922;45.572;10.002;2023-01-08T16:57:57;8.90;1.00
21522;DHT22;10922;45.572;10.002;2023-01-08T17:00:22;8.80;1.00
21522;DHT22;10922;45.572;10.002;2023-01-08T17:02:48;8.90;1.00
21522;DHT22;10922;45.572;10.002;2023-01-08T17:05:14;8.80;1.00
21522;DHT22;10922;45.572;10.002;2023-01-08T17:07:41;8.90;1.00
21522;DHT22;10922;45.572;10.002;2023-01-08T17:10:07;8.90;1.00
21522;DHT22;10922;45.572;10.002;2023-01-08T17:12:34;8.80;1.00
21522;DHT22;10922;45.572;10.002;2023-01-08T17:15:00;8.90;1.00
21522;DHT22;10922;45.572;10.002;2023-01-08T17:17:25;8.80;1.00
21522;DHT22;10922;45.572;10.002;2023-01-08T17:19:51;8.70;1.00
21522;DHT22;10922;45.572;10.002;2023-01-08T17:22:17;8.60;1.00
21522;DHT22;10922;45.572;10.002;2023-01-08T17:24:42;8.60;1.00
21522;DHT22;10922;45.572;10.002;2023-01-08T17:27:08;8.60;1.00
21522;DHT22;10922;45.572;10.002;2023-01-08T17:29:35;8.60;1.00
21522;DHT22;10922;45.572;10.002;2023-01-08T17:32:01;8.50;1.00
21522;DHT22;10922;45.572;10.002;2023-01-08T17:34:27;8.40;1.00
21522;DHT22;10922;45.572;10.002;2023-01-08T17:36:52;8.50;1.00
21522;DHT22;10922;45.572;10.002;2023-01-08T17:39:18;8.50;1.00
21522;DHT22;10922;45.572;10.002;2023-01-08T17:41:45;8.60;1.00
21522;DHT22;10922;45.572;10.002;2023-01-08T17:44:30;8.60;1.00